Date,TemperatureHighF,TemperatureAvgF,TemperatureLowF,DewpointHighF,DewpointAvgF,DewpointLowF,HumidityHigh,HumidityAvg,HumidityLow,PressureMaxIn,PressureMinIn,WindSpeedMaxMPH,WindSpeedAvgMPH,GustSpeedMaxMPH,PrecipitationSumIn
2013-1-1,29.3,24.3,11.8,27.0,19.7,9.0,93,83,69,30.17,30.05,7,2,13,0.00
2013-1-2,24.5,14.5,4.6,18.0,10.3,2.0,93,83,73,30.26,30.15,6,1,7,0.00
2013-1-3,29.1,22.7,13.0,26.0,17.5,7.0,89,80,74,30.27,30.18,11,2,14,0.00
2013-1-4,27.8,22.5,15.0,23.0,18.2,12.0,91,83,73,30.28,30.20,14,2,21,0.00
2013-1-5,33.8,27.8,19.4,30.0,24.3,18.0,94,86,75,30.31,30.07,8,2,13,0.01
2013-1-6,35.3,31.6,26.7,32.0,28.4,23.0,91,88,83,30.33,29.96,12,3,19,0.00
2013-1-7,34.0,27.5,20.2,27.0,23.9,19.0,94,86,75,30.42,30.19,12,3,19,0.00
2013-1-8,38.2,31.2,21.8,30.0,26.3,20.0,92,82,70,30.28,30.16,7,3,11,0.00
2013-1-9,45.0,39.3,29.8,36.0,32.2,23.0,85,76,65,30.49,30.11,11,3,17,0.00
2013-1-10,39.2,32.6,23.6,36.0,28.8,21.0,94,86,76,30.53,30.09,18,6,23,0.13
2013-1-11,57.1,48.3,37.3,53.0,46.0,35.0,98,92,79,30.08,29.76,17,6,24,0.29
2013-1-12,61.3,52.0,46.6,53.0,48.7,45.0,97,89,73,29.93,29.75,8,2,15,0.29
2013-1-13,47.7,35.8,23.8,47.0,34.7,21.0,97,95,89,30.15,29.73,14,6,21,0.59
2013-1-14,23.8,20.5,16.3,21.0,17.5,15.0,94,88,82,30.48,30.16,13,4,19,0.00
2013-1-15,28.9,21.5,13.0,23.0,18.3,11.0,95,88,77,30.46,30.16,8,1,11,0.00
2013-1-16,36.3,28.6,20.3,29.0,23.0,19.0,95,81,56,30.15,29.92,9,2,15,0.02
2013-1-17,36.8,29.9,19.6,30.0,24.0,15.0,92,79,62,30.37,30.04,17,7,24,0.00
2013-1-18,38.3,29.4,20.1,27.0,21.2,15.0,83,72,60,30.46,30.04,13,4,24,0.00
2013-1-19,49.3,42.1,37.0,37.0,32.0,27.0,78,68,59,30.04,29.75,15,5,20,0.00
2013-1-20,41.1,22.5,14.5,33.0,14.8,9.0,83,72,56,30.24,29.75,19,8,31,0.00
2013-1-21,18.5,13.6,7.2,12.0,5.7,-2.0,85,71,62,30.23,30.09,12,4,21,0.00
2013-1-22,13.3,8.0,3.4,2.0,-0.8,-3.0,77,68,54,30.39,30.23,11,3,15,0.00
2013-1-23,18.6,14.2,7.5,16.0,6.8,0.0,91,73,60,30.36,30.12,12,2,22,0.00
2013-1-24,20.6,13.9,0.8,14.0,6.4,-3.0,90,73,51,30.64,30.20,15,3,26,0.00
2013-1-25,23.6,20.9,17.9,21.0,16.0,10.0,91,81,71,30.48,30.04,14,4,15,0.00
2013-1-26,27.3,24.8,20.4,22.0,20.0,16.0,90,82,74,30.45,30.09,10,4,13,0.00
2013-1-27,33.3,26.5,19.0,32.0,22.5,16.0,95,85,77,30.45,30.07,15,7,20,0.00
2013-1-28,49.4,44.3,33.5,49.0,44.0,32.0,99,98,95,30.07,29.91,13,3,18,0.24
2013-1-29,60.0,53.9,45.1,57.0,53.2,45.0,99,97,91,29.95,29.37,17,6,25,0.41
2013-1-30,62.0,46.1,29.1,59.0,44.8,27.0,99,95,86,29.43,29.17,22,6,25,0.52
2013-1-31,29.0,19.8,11.3,26.0,15.4,6.0,91,83,72,30.04,29.45,13,4,24,0.00
2013-2-1,13.9,10.4,5.2,9.0,5.1,2.0,85,79,72,30.38,30.05,9,3,22,0.00
2013-2-2,25.5,19.6,13.9,23.0,16.5,9.0,92,88,82,30.28,29.98,10,2,14,0.00
2013-2-3,21.7,17.5,14.5,16.0,13.6,11.0,91,84,77,30.09,29.95,9,1,14,0.03
2013-2-4,24.5,21.4,15.3,22.0,19.4,12.0,94,91,88,30.08,29.86,9,3,11,0.00
2013-2-5,30.5,23.1,8.2,29.0,21.0,6.0,95,91,78,30.03,29.83,9,2,16,0.05
2013-2-6,33.7,28.2,21.7,27.0,22.6,20.0,92,80,62,30.29,30.03,9,3,14,0.08
2013-2-7,38.3,32.4,25.8,33.0,28.0,22.0,95,84,74,30.23,29.78,13,6,15,0.09
2013-2-8,34.2,30.0,22.3,33.0,27.0,19.0,98,88,79,30.36,29.78,22,9,28,0.01
2013-2-9,33.4,25.4,15.3,27.0,21.2,14.0,94,84,73,30.45,30.23,11,4,16,0.00
2013-2-10,47.6,37.1,28.2,46.0,33.1,25.0,96,85,75,30.22,29.64,19,8,23,0.12
2013-2-11,48.3,37.2,31.0,47.0,31.4,24.0,94,79,73,29.98,29.59,16,6,26,0.00
2013-2-12,36.9,31.0,28.1,28.0,25.3,24.0,85,79,70,30.10,29.95,10,3,18,0.00
2013-2-13,44.4,33.3,22.8,32.0,27.2,21.0,94,79,60,29.95,29.75,6,1,10,0.00
2013-2-14,41.3,36.2,32.9,36.0,31.8,25.0,93,84,72,29.95,29.72,13,4,24,0.00
2013-2-15,32.1,28.0,19.5,27.0,22.5,15.0,89,80,65,30.17,29.94,14,4,17,0.00
2013-2-16,23.9,20.0,12.9,20.0,15.5,7.0,91,83,61,30.15,30.07,19,5,23,0.00
2013-2-17,29.2,20.8,13.4,17.0,13.6,11.0,91,75,53,30.25,30.14,10,2,11,0.00
2013-2-18,51.4,37.3,22.7,43.0,29.5,16.0,91,74,63,30.19,29.54,22,8,33,0.24
2013-2-19,44.7,23.3,15.7,42.0,19.4,10.0,94,85,78,30.07,29.47,22,6,28,0.13
2013-2-20,23.0,18.9,13.5,19.0,14.9,10.0,88,84,80,30.34,30.08,14,5,21,0.00
2013-2-21,27.0,23.3,20.3,22.0,18.7,16.0,86,83,79,30.39,30.14,19,8,25,0.00
2013-2-22,33.8,28.1,21.2,33.0,26.7,18.0,98,94,84,30.14,29.89,20,7,30,0.04
2013-2-23,30.6,27.9,25.6,27.0,23.1,21.0,88,82,73,29.97,29.91,9,2,13,0.00
2013-2-24,36.1,29.1,24.2,27.0,23.6,21.0,92,80,66,30.17,29.96,10,2,13,0.00
2013-2-25,40.6,30.8,19.4,32.0,26.0,18.0,95,83,68,30.22,30.02,13,4,14,0.00
2013-2-26,34.2,32.7,30.8,33.0,29.9,26.0,97,89,78,30.02,29.44,22,9,28,0.19
2013-2-27,35.0,33.1,31.3,34.0,32.1,30.0,98,96,93,29.61,29.45,13,1,13,0.20
2013-2-28,36.7,33.8,31.7,33.0,32.1,30.0,98,93,86,29.96,29.60,12,6,15,0.14
2013-3-1,32.0,29.6,24.8,31.0,25.5,20.0,95,85,76,30.13,29.96,9,4,14,0.00
2013-3-2,31.6,27.2,24.7,23.0,21.1,19.0,86,78,69,30.12,30.07,13,7,17,0.00
2013-3-3,32.2,26.2,19.1,21.0,19.3,15.0,88,75,63,30.11,30.05,22,6,22,0.00
2013-3-4,35.2,26.7,15.4,27.0,20.1,14.0,95,77,57,30.17,30.05,7,2,11,0.00
2013-3-5,32.6,30.1,27.3,29.0,27.1,25.0,97,88,77,30.09,29.73,18,9,22,0.00
2013-3-6,33.3,30.3,26.1,29.0,27.2,25.0,96,88,81,30.25,29.81,17,7,22,0.18
2013-3-7,36.6,33.0,26.6,31.0,28.0,23.0,94,82,65,30.41,30.24,13,4,14,0.02
2013-3-8,39.0,27.0,12.9,27.0,20.4,11.0,96,78,53,30.52,30.41,6,1,7,0.00
2013-3-9,43.3,33.9,22.9,36.0,28.7,19.0,88,81,69,30.42,29.98,16,6,19,0.00
2013-3-10,57.8,47.8,40.0,47.0,39.5,35.0,81,73,65,29.98,29.73,13,7,18,0.03
2013-3-11,53.5,44.7,35.0,49.0,41.9,32.0,98,90,65,29.75,29.53,11,4,22,0.13
2013-3-12,35.4,32.6,30.2,32.0,28.9,26.0,95,86,72,29.96,29.76,10,3,16,0.00
2013-3-13,30.8,27.1,24.3,28.0,22.1,18.0,91,81,69,30.30,29.96,21,7,28,0.01
2013-3-14,41.8,31.2,22.2,28.0,21.7,18.0,85,69,45,30.33,30.13,6,2,11,0.01
2013-3-15,46.7,37.9,30.3,41.0,34.5,28.0,97,88,71,30.14,29.78,6,1,10,0.19
2013-3-16,40.2,34.5,30.2,40.0,32.9,27.0,98,93,83,30.08,29.64,11,6,16,0.00
2013-3-17,35.5,30.2,27.6,26.0,24.1,22.0,85,78,65,30.22,30.08,18,8,22,0.00
2013-3-18,35.5,31.6,27.5,35.0,29.8,23.0,98,93,81,30.09,29.58,20,8,25,0.05
2013-3-19,35.2,27.9,21.2,27.0,18.7,15.0,84,69,54,30.04,29.75,14,5,28,0.00
2013-3-20,29.5,25.0,19.5,19.0,15.2,11.0,87,67,53,30.04,29.98,15,6,21,0.00
2013-3-21,33.2,23.5,16.0,23.0,17.8,13.0,91,79,57,30.04,29.96,16,5,20,0.02
2013-3-22,40.9,27.5,16.2,23.0,18.9,14.0,94,72,44,30.07,30.00,9,2,14,0.00
2013-3-23,41.2,31.2,22.7,27.0,23.3,18.0,91,74,52,30.12,30.00,9,3,13,0.00
2013-3-24,35.1,31.1,27.4,28.0,25.9,24.0,91,81,67,30.01,29.57,25,10,31,0.00
2013-3-25,36.1,31.8,28.0,31.0,28.6,27.0,96,88,73,29.98,29.55,16,10,25,0.06
2013-3-26,38.4,34.1,31.1,32.0,29.8,28.0,92,84,70,30.20,29.98,13,6,19,0.00
2013-3-27,41.6,35.5,29.5,33.0,29.0,23.0,92,78,56,30.29,30.20,15,4,20,0.00
2013-3-28,50.1,37.1,23.1,28.0,24.9,20.0,89,64,41,30.33,30.27,10,2,15,0.00
2013-3-29,51.6,37.7,23.9,30.0,24.9,21.0,92,64,37,30.32,30.21,16,2,18,0.00
2013-3-30,55.4,39.4,23.9,36.0,28.7,21.0,92,68,45,30.24,29.92,7,1,13,0.00
2013-3-31,61.2,48.2,37.5,45.0,38.0,31.0,97,70,40,29.92,29.66,21,3,24,0.00
2013-4-1,38.6,33.4,23.8,31.0,21.6,16.0,81,63,42,30.14,29.78,21,8,26,0.00
2013-4-2,42.8,30.4,18.9,24.0,16.6,9.0,90,61,29,30.29,30.14,20,4,24,0.00
2013-4-3,45.7,32.4,18.7,24.0,15.9,11.0,89,56,26,30.44,30.29,14,3,19,0.00
2013-4-4,57.2,40.3,25.7,26.0,21.4,17.0,74,50,26,30.35,29.97,9,2,12,0.00
2013-4-5,52.8,42.2,33.1,33.0,25.7,17.0,79,56,25,30.18,29.95,15,5,18,0.00
2013-4-6,62.3,48.2,29.6,40.0,31.3,24.0,82,54,37,30.17,29.74,21,10,28,0.00
2013-4-7,62.3,54.2,42.9,47.0,42.6,36.0,87,66,47,29.96,29.66,15,5,24,0.04
2013-4-8,72.9,52.1,41.9,58.0,44.8,35.0,95,77,52,29.97,29.72,13,6,25,0.28
2013-4-9,77.7,60.9,45.0,61.0,52.3,43.0,94,75,54,30.00,29.81,14,4,21,0.00
2013-4-10,65.3,51.4,45.2,60.0,49.6,44.0,97,93,82,29.87,29.76,14,6,23,0.45
2013-4-11,45.2,42.0,39.4,44.0,41.3,39.0,99,97,95,29.83,29.57,20,11,27,1.36
2013-4-12,42.9,39.8,37.6,41.0,37.2,33.0,99,91,78,29.84,29.56,9,2,16,0.13
2013-4-13,43.0,39.0,34.5,36.0,33.4,31.0,95,81,65,30.00,29.85,7,2,15,0.08
2013-4-14,59.6,47.4,36.8,50.0,41.8,33.0,92,81,70,30.06,29.83,16,8,23,0.00
2013-4-15,64.4,57.4,47.3,57.0,51.6,44.0,90,81,75,29.91,29.82,14,5,19,0.00
2013-4-16,61.0,50.7,45.0,56.0,45.7,39.0,97,84,62,30.18,29.86,15,6,17,0.54
2013-4-17,54.5,49.8,44.5,47.0,43.4,39.0,92,79,73,30.24,29.93,22,10,26,0.25
2013-4-18,73.2,57.6,45.2,66.0,55.7,42.0,98,93,79,29.93,29.51,17,7,26,1.64
2013-4-19,60.2,40.9,35.9,60.0,37.1,31.0,98,86,77,29.85,29.44,13,4,24,1.13
2013-4-20,42.4,36.5,30.9,32.0,27.1,20.0,91,70,47,30.45,29.85,14,6,22,0.03
2013-4-21,50.0,38.5,25.9,35.0,28.7,22.0,89,69,50,30.58,30.42,16,6,18,0.00
2013-4-22,62.9,48.2,32.0,41.0,35.1,29.0,90,64,37,30.42,30.12,15,5,15,0.00
2013-4-23,66.7,53.8,44.0,56.0,47.0,39.0,98,79,52,30.13,29.79,13,4,21,1.21
2013-4-24,44.6,39.9,36.2,44.0,35.8,28.0,97,86,56,30.17,29.77,16,8,25,0.24
2013-4-25,51.4,42.7,36.2,40.0,34.7,33.0,89,74,51,30.36,30.14,17,4,21,0.06
2013-4-26,60.4,46.9,32.2,43.0,37.0,30.0,95,71,48,30.43,30.32,13,3,17,0.00
2013-4-27,67.0,55.1,39.7,49.0,41.3,35.0,85,62,38,30.34,30.03,14,4,19,0.00
2013-4-28,58.4,55.0,50.6,57.0,53.1,49.0,98,93,76,30.03,29.79,9,3,11,0.44
2013-4-29,68.9,59.7,53.5,59.0,54.9,53.0,99,85,63,29.93,29.84,9,2,11,0.00
2013-4-30,76.2,64.7,52.6,64.0,57.3,50.0,92,78,64,29.99,29.88,17,8,23,0.00
2013-5-1,81.2,69.2,54.0,61.0,56.8,51.0,89,67,46,30.14,29.99,12,4,16,0.00
2013-5-2,77.1,67.8,59.0,60.0,56.8,55.0,89,69,49,30.15,30.04,14,5,18,0.00
2013-5-3,76.4,68.0,59.2,62.0,55.8,47.0,86,67,46,30.05,29.91,16,7,25,0.00
2013-5-4,71.7,64.2,55.8,52.0,46.9,42.0,74,55,35,29.99,29.93,16,8,23,0.00
2013-5-5,69.5,61.2,50.4,53.0,47.6,43.0,81,62,49,30.00,29.94,15,6,19,0.00
2013-5-6,72.2,63.7,52.1,54.0,48.6,42.0,75,59,48,29.99,29.91,12,5,15,0.00
2013-5-7,73.9,63.6,51.5,56.0,52.6,48.0,87,69,49,30.00,29.93,11,3,18,0.00
2013-5-8,77.1,63.0,49.0,63.0,54.1,48.0,98,76,39,29.99,29.92,19,2,21,0.43
2013-5-9,78.1,61.3,50.5,59.0,54.8,50.0,98,82,44,29.96,29.86,4,0,7,0.04
2013-5-10,68.7,60.0,47.5,61.0,56.7,45.0,97,89,70,29.87,29.75,12,4,18,0.33
2013-5-11,55.0,47.5,40.1,51.0,43.9,36.0,96,88,73,29.97,29.80,19,5,29,0.09
2013-5-12,50.2,43.0,36.9,36.0,33.3,31.0,90,70,50,30.12,29.97,19,6,26,0.00
2013-5-13,59.5,46.5,33.2,37.0,31.8,23.0,96,62,27,30.18,30.09,13,2,21,0.00
2013-5-14,85.2,65.1,48.5,62.0,46.8,32.0,70,53,32,30.09,29.68,13,4,23,0.00
2013-5-15,84.1,74.6,64.3,62.0,57.4,53.0,73,56,36,29.77,29.63,13,4,20,0.00
2013-5-16,82.2,67.5,50.9,56.0,49.0,43.0,96,58,26,29.94,29.76,5,1,11,0.00
2013-5-17,80.5,66.7,53.2,58.0,50.2,43.0,76,57,41,30.04,29.93,13,6,17,0.00
2013-5-18,78.5,66.9,55.6,62.0,53.1,41.0,75,62,53,30.07,29.95,10,4,14,0.00
2013-5-19,85.0,71.7,56.8,66.0,59.5,50.0,79,66,52,29.97,29.80,9,3,14,0.00
2013-5-20,86.2,76.3,67.4,72.0,67.6,64.0,93,76,57,29.85,29.75,9,3,19,0.00
2013-5-21,84.9,74.8,63.9,68.0,64.5,62.0,94,72,48,29.77,29.66,7,2,18,0.03
2013-5-22,76.4,69.0,63.6,67.0,63.5,61.0,93,83,61,29.70,29.61,15,3,20,0.19
2013-5-23,63.4,56.3,49.4,61.0,54.1,47.0,96,92,80,30.14,29.70,15,5,21,0.21
2013-5-24,63.0,51.1,39.7,47.0,41.9,37.0,91,73,43,30.35,30.14,16,6,19,0.00
2013-5-25,67.2,54.6,41.0,47.0,43.0,38.0,92,68,43,30.37,30.23,6,1,11,0.00
2013-5-26,69.3,58.4,45.3,46.0,42.6,40.0,85,58,37,30.30,30.16,10,4,16,0.00
2013-5-27,61.0,55.4,50.0,57.0,50.1,39.0,98,85,45,30.18,29.89,14,8,23,0.87
2013-5-28,79.2,69.9,57.5,71.0,65.7,57.0,99,87,71,29.91,29.79,10,3,16,0.16
2013-5-29,83.9,74.7,64.1,70.0,65.7,62.0,93,74,58,29.95,29.84,7,2,22,0.00
2013-5-30,85.4,75.8,67.1,71.0,67.3,63.0,90,75,60,30.00,29.86,11,4,22,0.06
2013-5-31,74.5,71.0,62.9,70.0,66.8,62.0,97,86,78,29.93,29.81,9,4,20,1.02
2013-6-1,73.1,68.3,63.6,67.0,64.9,63.0,98,89,76,29.84,29.68,11,3,17,1.32
2013-6-2,68.6,61.8,47.9,64.0,56.9,44.0,93,84,73,29.98,29.68,14,5,19,0.00
2013-6-3,67.3,56.7,46.9,49.0,45.2,42.0,92,68,42,30.08,29.98,8,3,14,0.00
2013-6-4,72.6,60.6,45.5,54.0,49.8,44.0,97,70,46,30.16,30.08,10,2,13,0.00
2013-6-5,74.5,64.9,54.6,58.0,50.8,43.0,74,61,45,30.10,29.90,10,5,15,0.00
2013-6-6,75.9,64.7,57.2,58.0,52.3,46.0,77,65,50,29.92,29.77,11,4,14,0.00
2013-6-7,71.1,62.1,55.2,57.0,54.6,52.0,94,77,57,29.88,29.82,8,2,13,0.00
2013-6-8,76.9,64.5,49.1,59.0,54.1,48.0,98,72,46,29.98,29.88,6,1,10,0.00
2013-6-9,81.0,71.0,62.9,66.0,61.1,56.0,91,72,49,30.01,29.83,12,4,14,0.04
2013-6-10,78.8,68.9,64.0,67.0,65.5,63.0,98,89,61,29.83,29.70,9,2,15,0.56
2013-6-11,84.0,71.1,62.2,71.0,65.0,62.0,98,83,57,29.91,29.79,8,2,11,0.00
2013-6-12,87.4,74.6,65.4,77.0,70.2,64.0,98,86,68,29.86,29.59,13,2,22,1.53
2013-6-13,77.2,68.1,59.6,66.0,60.4,55.0,98,78,52,29.93,29.47,17,7,27,0.07
2013-6-14,79.2,66.4,55.6,62.0,58.0,55.0,97,77,47,30.05,29.92,10,2,11,0.00
2013-6-15,76.0,65.9,57.5,67.0,62.2,57.0,99,88,66,30.06,29.90,7,1,11,0.08
2013-6-16,80.7,72.2,64.9,71.0,67.2,64.0,96,84,68,29.89,29.84,9,1,14,0.04
2013-6-17,85.7,75.3,67.2,71.0,65.5,60.0,98,75,43,29.90,29.83,6,1,9,0.00
2013-6-18,76.9,68.8,62.8,66.0,61.6,54.0,94,78,60,30.00,29.82,9,3,17,0.00
2013-6-19,75.5,64.9,51.1,59.0,52.8,47.0,90,67,49,30.12,30.00,8,1,11,0.00
2013-6-20,82.5,69.9,54.6,69.0,60.8,52.0,92,74,55,30.16,30.09,5,1,6,0.00
2013-6-21,85.8,75.9,64.5,66.0,63.5,61.0,90,68,45,30.15,29.94,13,2,18,0.00
2013-6-22,86.9,75.8,67.4,77.0,69.6,64.0,91,81,70,30.06,29.95,6,1,17,0.04
2013-6-23,87.6,75.6,64.9,73.0,68.3,64.0,97,80,55,30.05,29.94,11,2,18,0.00
2013-6-24,85.0,74.9,66.5,72.0,68.9,65.0,98,83,61,30.04,29.88,15,2,22,0.41
2013-6-25,87.8,76.5,67.5,77.0,70.6,65.0,96,83,59,29.95,29.77,10,2,25,0.00
2013-6-26,83.4,71.6,66.6,76.0,69.1,66.0,98,92,70,29.86,29.69,12,2,15,0.60
2013-6-27,84.2,73.5,64.5,75.0,69.8,64.0,99,89,68,29.73,29.62,9,2,16,0.22
2013-6-28,79.0,71.5,63.6,69.0,65.3,62.0,99,82,58,29.63,29.53,16,4,21,0.01
2013-6-29,73.7,65.2,59.1,67.0,63.1,59.0,99,93,79,29.67,29.52,11,2,15,0.09
2013-6-30,75.8,67.2,61.3,65.0,62.3,60.0,98,85,62,29.89,29.67,12,4,17,0.64
2013-7-1,71.6,65.7,59.9,64.0,59.3,53.0,92,80,66,30.00,29.88,12,4,16,0.03
2013-7-2,72.0,64.7,58.1,68.0,61.4,56.0,97,89,75,30.00,29.95,7,3,14,0.09
2013-7-3,80.1,70.5,64.2,69.0,65.8,64.0,99,86,64,30.05,29.96,10,2,14,0.21
2013-7-4,78.7,69.4,60.0,68.0,63.0,58.0,99,82,52,30.11,30.03,4,0,6,0.01
2013-7-5,82.4,73.3,65.9,73.0,68.3,65.0,99,85,67,30.08,30.00,8,1,8,0.00
2013-7-6,78.5,71.4,66.8,71.0,68.9,66.0,99,92,76,30.06,29.96,5,1,8,0.00
2013-7-7,82.8,74.2,67.0,73.0,69.6,66.0,97,86,70,30.02,29.94,8,1,11,0.00
2013-7-8,82.0,74.9,69.2,76.0,71.5,68.0,96,89,76,30.02,29.93,4,1,11,0.12
2013-7-9,86.9,79.1,73.5,79.0,75.2,72.0,97,88,70,29.96,29.85,7,1,11,0.01
2013-7-10,84.0,74.8,59.4,79.0,70.6,58.0,94,87,68,29.93,29.77,14,2,26,0.33
2013-7-11,77.8,66.1,54.5,62.0,58.3,53.0,98,78,51,30.04,29.93,9,2,13,0.00
2013-7-12,78.2,66.0,52.9,65.0,59.2,52.0,98,80,52,30.11,30.02,8,1,10,0.00
2013-7-13,81.3,69.8,54.4,70.0,63.9,54.0,99,83,64,30.14,30.08,9,2,13,0.00
2013-7-14,85.7,75.9,65.5,75.0,70.6,65.0,98,84,68,30.18,30.13,7,2,11,0.00
2013-7-15,90.4,79.4,69.6,78.0,74.0,69.0,99,84,65,30.24,30.17,7,1,10,0.00
2013-7-16,90.8,80.1,68.8,78.0,73.3,68.0,99,81,59,30.28,30.21,7,1,9,0.00
2013-7-17,90.9,79.8,67.9,78.0,73.3,67.0,99,82,60,30.28,30.13,8,1,11,0.00
2013-7-18,92.2,81.5,69.7,79.0,74.5,69.0,99,81,58,30.14,29.95,5,1,10,0.00
2013-7-19,90.7,83.3,75.2,78.0,75.4,73.0,93,78,62,29.95,29.74,10,2,16,0.00
2013-7-20,85.1,78.8,69.1,76.0,72.3,66.0,98,81,59,29.86,29.71,7,2,17,0.89
2013-7-21,84.7,74.3,62.8,73.0,68.0,62.0,99,82,58,29.94,29.83,6,1,9,0.01
2013-7-22,81.2,71.7,65.3,72.0,68.1,64.0,98,89,69,29.86,29.73,10,2,13,0.44
2013-7-23,81.3,71.3,58.2,71.0,66.0,55.0,98,84,67,29.86,29.67,16,3,22,0.00
2013-7-24,72.2,61.9,50.5,60.0,54.2,49.0,94,77,57,30.00,29.86,9,2,11,0.00
2013-7-25,77.8,64.1,50.6,61.0,56.1,50.0,99,78,49,30.09,30.01,5,1,9,0.00
2013-7-26,76.3,66.7,54.6,65.0,60.0,54.0,97,80,62,30.07,29.88,8,1,15,0.00
2013-7-27,75.2,66.4,54.2,66.0,61.2,51.0,95,84,65,29.88,29.76,14,3,21,0.08
2013-7-28,65.7,58.4,50.9,55.0,52.3,49.0,95,81,65,30.00,29.84,8,2,14,0.00
2013-7-29,72.6,61.1,50.1,61.0,55.4,49.0,96,82,64,30.16,30.00,7,1,13,0.01
2013-7-30,77.0,66.1,51.4,65.0,59.4,50.0,99,81,57,30.20,30.07,4,1,15,0.00
2013-7-31,69.5,67.1,64.3,68.0,65.5,62.0,97,95,90,30.07,29.89,7,1,12,0.07
2013-8-1,76.0,66.0,56.5,68.0,62.2,55.0,99,89,55,29.94,29.89,11,2,14,0.38
2013-8-2,76.4,62.3,52.2,72.0,61.0,51.0,99,96,84,29.97,29.83,7,1,18,2.00
2013-8-3,77.7,67.9,57.5,68.0,62.1,54.0,100,83,53,30.03,29.90,11,2,16,0.11
2013-8-4,74.6,63.5,50.5,61.0,56.3,50.0,98,79,53,30.16,30.04,9,2,13,0.01
2013-8-5,74.3,63.8,51.3,66.0,58.6,51.0,98,84,66,30.10,29.92,6,1,10,0.00
2013-8-6,78.1,69.5,62.3,71.0,66.0,61.0,97,88,78,29.93,29.85,7,2,9,0.05
2013-8-7,84.1,73.6,67.1,75.0,70.7,66.0,99,91,72,29.87,29.80,7,1,15,0.32
2013-8-8,74.9,70.3,65.3,70.0,67.6,65.0,99,91,82,29.95,29.87,7,2,10,0.00
2013-8-9,80.0,70.7,62.1,68.0,64.9,61.0,98,83,60,29.99,29.90,7,1,9,0.00
2013-8-10,80.5,71.1,63.2,71.0,66.1,62.0,99,85,65,30.06,29.99,6,1,10,0.00
2013-8-11,78.7,68.5,56.7,68.0,62.7,56.0,99,83,59,30.09,30.02,7,1,12,0.00
2013-8-12,82.3,72.4,62.4,72.0,66.7,61.0,96,83,65,30.04,29.80,5,1,15,0.15
2013-8-13,68.5,62.8,53.1,66.0,56.8,50.0,99,82,58,30.07,29.83,12,5,21,0.04
2013-8-14,69.4,57.1,44.3,56.0,50.4,43.0,98,80,55,30.18,30.07,7,2,17,0.00
2013-8-15,74.1,59.9,45.0,59.0,52.3,44.0,99,79,48,30.18,30.09,8,1,8,0.00
2013-8-16,76.0,64.4,53.8,62.0,57.3,53.0,99,80,50,30.16,30.11,8,0,10,0.00
2013-8-17,76.1,63.5,50.3,63.0,56.3,50.0,99,80,52,30.23,30.14,10,2,15,0.00
2013-8-18,81.6,67.0,51.9,67.0,60.1,51.0,99,81,54,30.18,30.07,5,0,8,0.00
2013-8-19,82.7,68.4,53.9,68.0,61.8,53.0,99,82,58,30.10,30.02,4,0,7,0.00
2013-8-20,85.2,71.1,57.7,71.0,64.4,57.0,99,82,56,30.12,30.04,5,0,9,0.00
2013-8-21,85.5,73.5,63.6,74.0,68.1,62.0,97,84,62,30.11,29.97,7,1,10,0.00
2013-8-22,76.9,71.0,67.1,73.0,69.0,66.0,99,93,84,30.05,29.95,9,2,16,0.55
2013-8-23,80.6,70.6,58.3,67.0,63.0,57.0,99,79,51,30.14,30.03,9,2,9,0.00
2013-8-24,80.2,66.6,52.3,65.0,57.9,52.0,98,77,46,30.27,30.14,8,2,12,0.00
2013-8-25,85.6,71.6,57.9,69.0,63.5,56.0,97,77,54,30.27,30.15,4,1,9,0.01
2013-8-26,86.1,74.9,63.4,75.0,68.6,61.0,94,81,65,30.18,29.99,5,1,8,0.00
2013-8-27,89.5,78.8,71.5,79.0,73.5,69.0,94,84,68,29.99,29.84,4,0,9,0.00
2013-8-28,84.9,78.7,72.1,78.0,72.5,69.0,94,81,73,29.96,29.80,8,3,13,0.00
2013-8-29,86.5,74.8,64.0,74.0,69.2,64.0,99,84,58,30.03,29.95,8,1,9,0.00
2013-8-30,89.3,76.2,62.2,75.0,69.9,62.0,99,82,61,29.96,29.71,5,1,14,0.00
2013-8-31,81.3,75.8,69.9,74.0,72.1,69.0,98,88,74,29.80,29.69,6,1,9,0.04
2013-9-1,80.0,72.0,64.9,74.0,69.9,65.0,100,93,79,29.76,29.70,4,0,7,0.01
2013-9-2,78.7,70.6,56.7,70.0,64.2,54.0,99,82,57,29.92,29.70,16,4,19,0.01
2013-9-3,74.6,61.7,48.4,61.0,54.9,47.0,99,80,57,30.02,29.91,10,2,14,0.00
2013-9-4,79.3,63.2,48.1,63.0,56.4,47.0,99,81,53,30.10,30.02,6,1,12,0.00
2013-9-5,77.0,63.6,50.8,59.0,51.5,42.0,99,70,31,30.21,30.09,9,2,15,0.00
2013-9-6,80.2,62.1,47.2,61.0,52.3,45.0,95,74,42,30.24,30.05,8,1,11,0.00
2013-9-7,86.1,71.8,59.3,69.0,63.3,55.0,90,75,52,30.05,29.88,7,1,11,0.00
2013-9-8,75.3,68.4,59.8,68.0,64.7,59.0,99,88,74,30.00,29.89,12,3,14,0.00
2013-9-9,90.4,73.7,60.8,74.0,65.5,55.0,88,76,57,29.99,29.84,10,2,12,0.00
2013-9-10,94.5,82.8,73.0,74.0,70.9,67.0,95,70,42,30.00,29.88,10,1,14,0.00
2013-9-11,93.0,80.2,70.8,74.0,70.3,68.0,94,74,44,30.02,29.90,13,1,21,0.00
2013-9-12,81.0,70.2,58.2,70.0,64.3,53.0,99,83,45,29.96,29.80,10,3,19,0.74
2013-9-13,63.4,54.9,45.2,53.0,46.9,43.0,92,76,52,30.11,29.96,10,4,16,0.00
2013-9-14,69.2,51.6,36.4,49.0,42.6,36.0,99,76,39,30.20,30.08,6,1,9,0.00
2013-9-15,67.6,55.9,43.3,58.0,50.4,42.0,97,83,57,30.10,30.00,6,1,8,0.20
2013-9-16,67.0,58.5,49.6,56.0,52.4,46.0,98,82,55,30.31,30.10,9,2,14,0.00
2013-9-17,68.2,55.6,43.5,53.0,48.4,43.0,97,79,52,30.36,30.17,10,2,13,0.01
2013-9-18,79.6,65.0,53.8,61.0,55.3,50.0,95,74,40,30.17,29.98,7,1,10,0.00
2013-9-19,70.4,67.6,65.6,69.0,66.5,60.0,99,96,79,30.01,29.86,6,2,12,1.48
2013-9-20,76.3,71.5,65.4,72.0,68.9,64.0,98,91,79,29.88,29.73,7,1,11,0.13
2013-9-21,68.6,60.6,51.8,63.0,53.6,48.0,98,80,50,29.88,29.70,16,4,21,0.00
2013-9-22,64.7,55.8,46.2,52.0,47.0,44.0,92,74,52,30.04,29.88,12,2,14,0.00
2013-9-23,65.5,52.1,39.1,51.0,45.6,38.0,98,80,55,30.14,30.04,9,2,15,0.00
2013-9-24,68.0,54.4,43.1,51.0,47.1,42.0,97,79,51,30.11,29.95,10,2,14,0.01
2013-9-25,71.4,57.5,46.2,55.0,50.8,45.0,99,81,50,29.97,29.90,8,1,11,0.00
2013-9-26,77.0,59.0,42.5,60.0,49.3,42.0,99,75,36,30.09,29.95,10,1,13,0.01
2013-9-27,76.6,61.4,45.1,59.0,51.7,43.0,96,72,46,30.18,30.09,11,2,13,0.00
2013-9-28,80.0,64.1,50.5,59.0,54.6,49.0,97,75,44,30.14,29.97,9,2,14,0.00
2013-9-29,66.2,61.3,50.6,61.0,57.3,49.0,98,87,71,29.98,29.93,10,1,11,0.05
2013-9-30,70.9,58.3,50.3,61.0,55.1,49.0,99,90,64,30.00,29.91,7,1,12,0.01
2013-10-1,71.6,63.0,56.1,64.0,60.9,55.0,99,93,76,30.01,29.94,5,1,10,0.01
2013-10-2,81.1,68.9,60.4,68.0,64.4,60.0,99,87,62,30.06,29.96,4,0,7,0.01
2013-10-3,78.6,67.7,59.5,70.0,65.0,59.0,99,91,71,29.99,29.89,7,1,14,0.24
2013-10-4,79.5,70.6,65.7,74.0,67.7,64.0,97,91,74,29.98,29.91,6,1,14,0.94
2013-10-5,76.9,69.1,63.9,72.0,67.4,63.0,100,94,81,29.97,29.81,9,2,12,0.13
2013-10-6,68.5,60.1,49.4,68.0,58.3,42.0,98,93,73,29.82,29.67,11,3,15,0.52
2013-10-7,59.6,49.2,42.3,51.0,44.7,41.0,97,85,66,30.13,29.75,7,2,16,0.00
2013-10-8,70.3,54.6,42.3,54.0,47.5,41.0,98,80,48,30.25,30.13,9,2,14,0.01
2013-10-9,70.4,54.8,38.4,51.0,45.4,37.0,98,74,43,30.27,30.16,8,2,13,0.00
2013-10-10,71.8,55.4,41.5,54.0,46.6,41.0,98,76,43,30.19,30.09,6,1,13,0.00
2013-10-11,74.6,58.2,40.4,54.0,48.5,39.0,99,73,41,30.11,30.02,7,1,11,0.00
2013-10-12,78.6,63.1,49.0,62.0,54.4,48.0,98,76,42,30.08,29.98,7,1,14,0.01
2013-10-13,66.9,57.9,43.6,62.0,47.6,40.0,93,71,43,30.35,30.08,12,4,13,0.00
2013-10-14,64.4,50.5,37.0,50.0,43.8,35.0,98,80,53,30.38,30.21,9,2,13,0.00
2013-10-15,64.3,55.1,45.5,62.0,52.9,44.0,97,92,87,30.21,29.84,9,3,13,0.04
2013-10-16,62.7,53.1,46.9,62.0,48.9,45.0,96,86,74,29.93,29.83,8,1,17,0.00
2013-10-17,50.8,47.9,42.9,49.0,45.8,41.0,97,92,86,29.93,29.81,8,1,12,0.07
2013-10-18,62.0,48.1,40.1,49.0,42.7,38.0,96,83,55,29.96,29.88,6,1,17,0.01
2013-10-19,52.5,44.5,40.3,44.0,39.2,35.0,96,83,57,29.94,29.80,6,1,18,0.24
2013-10-20,61.1,51.1,39.2,46.0,41.3,36.0,90,70,52,29.93,29.84,9,2,16,0.01
2013-10-21,54.9,48.9,38.0,48.0,42.8,30.0,91,80,68,29.93,29.84,6,1,15,0.02
2013-10-22,47.9,37.7,30.7,35.0,30.3,26.0,95,77,45,29.99,29.91,6,1,12,0.06
2013-10-23,44.2,37.8,32.4,38.0,34.1,30.0,98,87,62,30.01,29.84,11,2,16,0.00
2013-10-24,42.1,36.8,31.8,35.0,32.6,30.0,92,85,69,30.26,30.00,10,2,17,0.03
2013-10-25,48.2,38.6,29.9,36.0,30.3,27.0,92,73,50,30.40,30.17,10,1,14,0.00
2013-10-26,54.2,43.6,35.0,40.0,33.7,29.0,93,69,58,30.17,29.84,19,3,23,0.00
2013-10-27,54.6,42.3,29.9,38.0,33.2,28.0,96,73,42,30.09,30.01,6,1,10,0.00
2013-10-28,57.7,42.4,29.9,41.0,34.3,28.0,93,75,48,30.35,30.07,6,1,9,0.00
2013-10-29,53.7,43.4,33.3,43.0,38.1,31.0,93,82,66,30.40,30.21,8,3,12,0.00
2013-10-30,61.6,51.4,38.5,60.0,48.2,37.0,99,89,80,30.21,29.89,10,3,13,0.33
2013-10-31,63.3,60.6,55.4,62.0,59.9,54.0,99,97,95,29.88,29.20,13,5,24,1.16
2013-11-1,54.8,48.1,45.2,54.0,44.5,42.0,96,87,77,29.70,29.27,8,2,19,0.04
2013-11-2,49.0,45.0,41.9,45.0,42.6,38.0,96,91,79,30.07,29.69,10,4,20,0.03
2013-11-3,47.5,42.2,38.3,41.0,38.7,36.0,97,88,74,30.37,30.08,13,4,15,0.37
2013-11-4,51.5,44.5,36.9,43.0,38.2,34.0,91,79,61,30.39,30.25,18,7,26,0.00
2013-11-5,55.4,50.7,44.5,50.0,45.7,41.0,92,83,70,30.34,30.12,14,4,19,0.00
2013-11-6,58.5,51.7,41.8,53.0,48.0,40.0,96,88,69,30.11,29.82,15,6,20,0.29
2013-11-7,46.7,40.2,33.3,40.0,33.5,28.0,93,78,50,30.22,30.03,15,3,17,0.01
2013-11-8,47.0,38.4,30.6,35.0,32.0,29.0,95,79,55,30.34,30.15,9,2,12,0.00
2013-11-9,60.0,50.0,41.5,43.0,38.1,32.0,74,64,51,30.14,29.88,12,4,22,0.00
2013-11-10,47.0,40.6,31.1,39.0,32.6,29.0,91,74,62,30.31,29.99,15,4,25,0.00
2013-11-11,47.9,38.7,28.3,40.0,33.5,23.0,96,82,65,30.36,30.07,17,4,20,0.12
2013-11-12,33.8,27.0,19.4,27.0,22.5,17.0,90,83,72,30.62,30.37,11,4,17,0.01
2013-11-13,38.1,28.9,20.0,23.0,20.0,17.0,90,71,48,30.60,30.28,10,2,14,0.01
2013-11-14,52.1,39.9,29.5,27.0,24.2,22.0,76,56,34,30.27,30.04,14,3,25,0.00
2013-11-15,51.3,44.4,39.3,33.0,30.0,25.0,76,58,48,30.06,30.00,9,2,14,0.00
2013-11-16,57.0,48.8,37.5,56.0,46.2,32.0,96,90,78,30.04,29.74,18,8,24,0.10
2013-11-17,63.5,57.3,46.8,61.0,54.4,41.0,97,90,75,29.74,29.27,14,6,30,0.91
2013-11-18,46.7,39.5,35.0,41.0,33.9,29.0,91,80,70,30.18,29.65,21,6,25,0.00
2013-11-19,43.1,35.4,27.7,30.0,27.6,24.0,87,74,55,30.37,30.19,9,3,18,0.00
2013-11-20,43.4,34.9,25.6,36.0,29.3,23.0,91,80,67,30.39,30.19,16,5,19,0.00
2013-11-21,47.9,44.5,41.0,48.0,42.3,36.0,99,92,75,30.26,30.16,9,4,14,0.56
2013-11-22,47.9,40.5,26.2,48.0,37.9,24.0,99,90,75,30.41,30.14,17,6,22,0.02
2013-11-23,31.6,25.0,16.9,27.0,21.3,13.0,95,86,64,30.61,30.35,21,7,30,0.00
2013-11-24,24.7,19.1,12.2,20.0,14.6,10.0,94,83,70,30.69,30.50,8,2,11,0.00
2013-11-25,30.9,25.8,18.6,26.0,18.7,11.0,85,75,62,30.49,30.16,10,3,17,0.00
2013-11-26,35.4,31.0,27.1,30.0,27.1,21.0,92,85,77,30.16,29.97,13,2,21,0.01
2013-11-27,27.8,25.1,22.6,24.0,20.8,17.0,92,84,73,30.26,29.99,15,5,19,0.00
2013-11-28,31.8,26.0,22.0,23.0,19.2,17.0,89,75,64,30.46,30.25,7,1,13,0.00
2013-11-29,36.3,29.6,22.8,24.0,22.7,19.0,89,76,59,30.66,30.46,8,2,11,0.00
2013-11-30,48.6,35.7,28.3,33.0,27.8,23.0,85,74,55,30.52,30.11,9,3,15,0.00
2013-12-1,45.2,36.8,26.0,38.0,31.3,25.0,95,80,68,30.11,29.99,9,1,11,0.00
2013-12-2,36.2,31.7,22.9,33.0,29.4,22.0,97,91,82,29.99,29.86,11,4,16,0.00
2013-12-3,48.1,40.5,33.7,46.0,39.4,32.0,97,95,93,29.85,29.77,14,6,16,0.16
2013-12-4,58.4,50.3,44.4,57.0,49.6,43.0,99,97,93,29.82,29.61,11,5,18,0.00
2013-12-5,58.4,37.3,27.3,56.0,33.0,22.0,94,84,78,30.19,29.62,13,3,24,0.00
2013-12-6,28.4,26.9,23.6,23.0,21.4,16.0,84,80,74,30.44,30.16,10,6,14,0.00
2013-12-7,25.6,20.2,13.2,18.0,14.5,10.0,91,79,63,30.65,30.45,12,4,16,0.00
2013-12-8,26.6,21.7,14.1,26.0,18.1,12.0,96,86,75,30.58,30.00,18,7,21,0.00
2013-12-9,28.3,23.6,16.4,27.0,19.7,9.0,96,85,74,30.20,29.95,11,3,21,0.00
2013-12-10,24.8,16.2,5.3,15.0,8.8,0.0,81,73,58,30.32,30.07,14,3,22,0.00
2013-12-11,23.5,16.8,4.6,20.0,12.5,2.0,92,84,68,30.51,30.32,11,2,17,0.01
2013-12-12,21.8,11.3,-1.9,12.0,4.3,-6.0,87,74,54,30.55,30.30,13,2,17,0.00
2013-12-13,28.9,22.5,14.0,25.0,15.8,8.0,94,76,65,30.31,30.17,7,2,10,0.02
2013-12-14,26.3,24.2,20.0,25.0,23.0,18.0,95,94,92,30.20,29.83,16,7,19,0.01
2013-12-15,24.7,17.4,9.7,23.0,14.8,7.0,94,89,84,30.12,29.91,12,2,15,0.00
2013-12-16,20.5,15.3,7.2,17.0,12.2,5.0,93,87,78,30.20,30.04,9,2,12,0.00
2013-12-17,27.6,22.2,18.3,26.0,20.6,17.0,95,93,89,30.09,29.98,7,2,11,0.00
2013-12-18,33.7,22.8,15.7,24.0,17.4,13.0,91,80,66,30.23,29.94,14,3,18,0.06
2013-12-19,43.9,39.7,33.7,38.0,34.3,24.0,92,81,67,30.00,29.86,10,2,13,0.13
2013-12-20,53.5,46.3,39.9,53.0,45.7,38.0,99,97,91,29.85,29.70,7,2,13,0.37
2013-12-21,46.8,36.6,34.2,46.0,36.0,34.0,99,98,96,29.82,29.55,20,4,20,1.13
2013-12-22,37.1,34.7,31.6,36.0,34.0,31.0,99,97,94,30.02,29.46,14,3,21,0.20
2013-12-23,31.5,25.0,11.0,31.0,21.9,7.0,97,88,79,30.40,30.04,12,3,14,0.00
2013-12-24,19.1,11.3,4.6,14.0,7.8,1.0,91,85,79,30.57,30.40,8,2,15,0.00
2013-12-25,26.3,22.6,15.6,25.0,19.5,14.0,95,87,81,30.50,30.13,13,4,18,0.00
2013-12-26,32.3,26.5,19.9,27.0,22.3,16.0,96,84,71,30.32,30.10,7,2,17,0.03
2013-12-27,42.0,35.6,27.7,35.0,30.6,26.0,92,82,73,30.34,30.15,7,2,15,0.03
2013-12-28,48.2,41.1,35.4,38.0,34.2,31.0,87,77,67,30.15,29.90,9,3,18,0.00
2013-12-29,42.9,34.9,24.2,35.0,29.7,21.0,94,81,69,30.05,29.74,18,5,26,0.00
2013-12-30,24.0,20.1,16.1,21.0,15.1,13.0,89,81,69,30.28,30.05,13,3,17,0.00
2013-12-31,17.9,15.3,11.5,14.0,11.3,8.0,90,84,74,30.38,30.16,8,2,13,0.00
2014-1-1,19.7,17.2,14.9,17.0,15.0,13.0,92,90,87,30.34,30.16,17,6,17,0.00
2014-1-2,16.2,12.6,-2.1,14.0,9.6,-6.0,92,87,77,30.37,30.05,16,8,23,0.00